createdAt,value
2023-05-25T00:00:00.681Z,16.14
2023-05-25T00:02:47.443Z,16.14
2023-05-25T00:05:35.117Z,16.18
2023-05-25T00:08:21.616Z,16.23
2023-05-25T00:11:07.608Z,16.20
2023-05-25T00:13:54.263Z,16.18
2023-05-25T00:16:40.632Z,16.08
2023-05-25T00:19:26.898Z,16.05
2023-05-25T00:22:14.320Z,16.05
2023-05-25T00:25:00.641Z,16.03
2023-05-25T00:27:46.654Z,16.04
2023-05-25T00:30:32.755Z,16.06
2023-05-25T00:33:18.909Z,15.96
2023-05-25T00:36:05.383Z,15.88
2023-05-25T00:38:52.645Z,15.91
2023-05-25T00:41:41.464Z,15.93
2023-05-25T00:44:28.722Z,16.02
2023-05-25T00:47:15.076Z,16.00
2023-05-25T00:50:02.354Z,15.98
2023-05-25T00:52:49.056Z,15.97
2023-05-25T00:55:38.140Z,16.15
2023-05-25T00:58:28.460Z,16.02
2023-05-25T01:01:16.746Z,16.09
2023-05-25T01:04:04.739Z,16.14
2023-05-25T01:06:52.972Z,16.15
2023-05-25T01:09:40.814Z,16.16
2023-05-25T01:12:30.285Z,16.18
2023-05-25T01:15:16.469Z,16.22
2023-05-25T01:18:03.725Z,16.13
2023-05-25T01:20:58.481Z,16.25
2023-05-25T01:23:48.443Z,16.27
2023-05-25T01:26:39.266Z,16.27
2023-05-25T01:29:27.341Z,16.25
2023-05-25T01:32:14.666Z,16.20
2023-05-25T01:35:01.730Z,16.18
2023-05-25T01:37:50.552Z,16.13
2023-05-25T01:40:36.471Z,16.09
2023-05-25T01:43:24.847Z,16.04
2023-05-25T01:46:16.832Z,15.97
2023-05-25T01:49:10.068Z,15.98
2023-05-25T01:52:01.986Z,15.90
2023-05-25T01:54:53.436Z,15.77
2023-05-25T01:57:42.610Z,15.68
2023-05-25T02:00:31.410Z,15.61
2023-05-25T02:03:17.913Z,15.54
2023-05-25T02:06:04.362Z,15.53
2023-05-25T02:08:52.300Z,15.51
2023-05-25T02:11:39.605Z,15.51
2023-05-25T02:14:26.101Z,15.41
2023-05-25T02:17:14.170Z,15.44
2023-05-25T02:20:00.560Z,15.51
2023-05-25T02:22:47.000Z,15.39
2023-05-25T02:25:33.007Z,15.45
2023-05-25T02:28:20.714Z,15.41
2023-05-25T02:31:08.406Z,15.32
2023-05-25T02:33:54.488Z,15.33
2023-05-25T02:36:43.378Z,15.49
2023-05-25T02:39:29.596Z,15.34
2023-05-25T02:42:17.973Z,15.38
2023-05-25T02:45:06.857Z,15.37
2023-05-25T02:47:54.395Z,15.37
2023-05-25T02:50:42.253Z,15.24
2023-05-25T02:53:32.257Z,15.19
2023-05-25T02:56:21.605Z,15.19
2023-05-25T02:59:07.960Z,15.25
2023-05-25T03:01:55.398Z,15.24
2023-05-25T03:04:42.148Z,15.21
2023-05-25T03:07:28.587Z,15.24
2023-05-25T03:10:14.973Z,15.28
2023-05-25T03:13:01.559Z,15.27
2023-05-25T03:15:47.904Z,15.25
2023-05-25T03:18:36.766Z,15.29
2023-05-25T03:21:23.713Z,15.28
2023-05-25T03:24:10.042Z,15.27
2023-05-25T03:26:57.052Z,15.30
2023-05-25T03:29:43.515Z,15.29
2023-05-25T03:32:29.750Z,15.41
2023-05-25T03:35:17.652Z,15.42
2023-05-25T03:38:04.085Z,15.44
2023-05-25T03:40:50.021Z,15.54
2023-05-25T03:43:36.063Z,15.59
2023-05-25T03:46:24.071Z,15.61
2023-05-25T03:49:13.856Z,15.59
2023-05-25T03:52:01.523Z,15.54
2023-05-25T03:54:47.697Z,15.50
2023-05-25T03:57:33.969Z,15.61
2023-05-25T04:00:20.768Z,15.63
2023-05-25T04:03:10.913Z,15.84
2023-05-25T04:05:58.931Z,15.95
2023-05-25T04:08:47.875Z,15.96
2023-05-25T04:11:33.849Z,15.98
2023-05-25T04:14:21.060Z,15.93
2023-05-25T04:17:07.848Z,16.06
2023-05-25T04:19:53.985Z,16.19
2023-05-25T04:22:40.103Z,16.23
2023-05-25T04:25:29.691Z,16.42
2023-05-25T04:28:17.669Z,16.44
2023-05-25T04:31:09.622Z,16.54
2023-05-25T04:34:25.390Z,16.45
2023-05-25T04:37:21.555Z,16.83
2023-05-25T04:40:09.750Z,16.80
2023-05-25T04:42:57.604Z,16.98
2023-05-25T04:45:45.964Z,16.90
2023-05-25T04:48:34.282Z,16.91
2023-05-25T04:51:20.613Z,16.98
2023-05-25T04:54:07.058Z,17.07
2023-05-25T04:56:53.197Z,17.14
2023-05-25T04:59:41.869Z,17.25
2023-05-25T05:02:27.718Z,17.22
2023-05-25T05:05:14.219Z,17.32
2023-05-25T05:08:01.240Z,17.38
2023-05-25T05:10:47.767Z,17.51
2023-05-25T05:13:34.339Z,17.65
2023-05-25T05:16:22.451Z,17.68
2023-05-25T05:19:08.968Z,17.79
2023-05-25T05:21:55.389Z,17.75
2023-05-25T05:24:44.068Z,17.71
2023-05-25T05:27:33.051Z,17.68
2023-05-25T05:30:24.334Z,17.91
2023-05-25T05:33:12.148Z,18.05
2023-05-25T05:36:04.808Z,18.11
2023-05-25T05:38:51.357Z,18.08
2023-05-25T05:41:37.319Z,17.96
2023-05-25T05:44:27.896Z,18.17
2023-05-25T05:47:15.515Z,18.03
2023-05-25T05:50:03.439Z,18.28
2023-05-25T05:52:50.004Z,18.32
2023-05-25T05:55:36.844Z,18.10
2023-05-25T05:58:23.175Z,18.12
2023-05-25T06:01:09.302Z,18.24
2023-05-25T06:03:56.097Z,18.07
2023-05-25T06:06:45.293Z,18.18
2023-05-25T06:09:31.620Z,18.23
2023-05-25T06:12:19.257Z,18.32
2023-05-25T06:15:06.556Z,18.42
2023-05-25T06:17:55.376Z,18.39
2023-05-25T06:20:41.611Z,18.54
2023-05-25T06:23:29.221Z,18.57
2023-05-25T06:26:15.430Z,18.51
2023-05-25T06:29:01.821Z,18.67
2023-05-25T06:31:48.014Z,18.80
2023-05-25T06:34:37.288Z,18.47
2023-05-25T06:37:24.779Z,18.54
2023-05-25T06:40:13.171Z,18.78
2023-05-25T06:42:59.402Z,18.75
2023-05-25T06:46:03.873Z,18.76
2023-05-25T06:48:50.840Z,18.77
2023-05-25T06:51:37.267Z,19.03
2023-05-25T06:54:23.283Z,18.81
2023-05-25T06:57:10.772Z,19.13
2023-05-25T06:59:56.974Z,19.08
2023-05-25T07:02:43.086Z,19.01
2023-05-25T07:05:29.601Z,19.32
2023-05-25T07:08:16.077Z,19.59
2023-05-25T07:11:02.333Z,19.65
2023-05-25T07:13:49.607Z,19.68
2023-05-25T07:16:35.880Z,19.78
2023-05-25T07:19:22.070Z,19.63
2023-05-25T07:22:08.196Z,19.92
2023-05-25T07:24:54.324Z,19.81
2023-05-25T07:27:42.646Z,19.76
2023-05-25T07:30:30.563Z,20.34
2023-05-25T07:33:16.593Z,20.71
2023-05-25T07:36:03.033Z,21.07
2023-05-25T07:38:49.231Z,20.80
2023-05-25T07:41:36.063Z,20.51
2023-05-25T07:44:22.260Z,20.47
2023-05-25T07:47:09.720Z,20.73
2023-05-25T07:49:55.809Z,20.69
2023-05-25T07:52:42.249Z,20.87
2023-05-25T07:55:28.692Z,21.04
2023-05-25T07:58:14.686Z,21.18
2023-05-25T08:01:00.833Z,21.30
2023-05-25T08:03:50.007Z,21.30
2023-05-25T08:06:36.554Z,21.32
2023-05-25T08:09:23.075Z,21.45
2023-05-25T08:12:30.701Z,21.41
2023-05-25T08:15:15.168Z,21.63
2023-05-25T08:18:03.658Z,21.61
2023-05-25T08:20:51.238Z,21.76
2023-05-25T08:23:42.490Z,21.80
2023-05-25T08:26:37.794Z,21.83
2023-05-25T08:29:27.966Z,21.76
2023-05-25T08:32:13.900Z,21.82
2023-05-25T08:34:59.806Z,21.91
2023-05-25T08:37:46.983Z,22.02
2023-05-25T08:40:33.563Z,22.09
2023-05-25T08:43:19.685Z,21.92
2023-05-25T08:46:06.749Z,22.12
2023-05-25T08:48:54.852Z,22.11
2023-05-25T08:51:44.360Z,21.94
2023-05-25T08:54:35.330Z,21.99
2023-05-25T08:57:21.987Z,21.95
2023-05-25T09:00:10.823Z,22.06
2023-05-25T09:03:01.188Z,22.10
2023-05-25T09:05:48.324Z,22.12
2023-05-25T09:08:35.354Z,22.25
2023-05-25T09:11:35.970Z,22.29
2023-05-25T09:14:24.940Z,22.25
2023-05-25T09:17:11.102Z,22.25
2023-05-25T09:19:57.610Z,22.39
2023-05-25T09:22:45.221Z,22.31
2023-05-25T09:25:31.880Z,22.46
2023-05-25T09:31:11.096Z,22.66
2023-05-25T09:34:00.189Z,22.79
2023-05-25T09:36:47.875Z,22.91
2023-05-25T09:39:34.587Z,22.95
2023-05-25T09:42:21.546Z,23.13
2023-05-25T09:45:10.079Z,23.05
2023-05-25T09:47:56.833Z,23.34
2023-05-25T09:50:43.974Z,23.56
2023-05-25T09:53:32.658Z,23.85
2023-05-25T09:56:19.092Z,23.73
2023-05-25T09:59:05.595Z,23.95
2023-05-25T10:01:53.929Z,24.15
2023-05-25T10:04:41.215Z,24.12
2023-05-25T10:07:27.927Z,24.28
2023-05-25T10:10:16.595Z,24.19
2023-05-25T10:13:02.991Z,24.41
2023-05-25T10:15:50.131Z,24.37
2023-05-25T10:18:41.439Z,24.29
2023-05-25T10:21:27.947Z,24.38
2023-05-25T10:24:19.306Z,24.33
2023-05-25T10:27:18.473Z,24.37
2023-05-25T10:30:15.256Z,24.29
2023-05-25T10:33:03.603Z,24.13
2023-05-25T10:36:02.943Z,24.05
2023-05-25T10:38:56.628Z,24.05
2023-05-25T10:41:43.025Z,24.08
2023-05-25T10:44:30.074Z,24.01
2023-05-25T10:47:17.432Z,24.23
2023-05-25T10:50:04.343Z,24.36
2023-05-25T10:53:01.264Z,24.52
2023-05-25T10:55:50.402Z,24.63
2023-05-25T10:58:37.494Z,24.69
2023-05-25T11:01:23.686Z,24.82
2023-05-25T11:04:17.126Z,24.55
2023-05-25T11:07:14.285Z,24.85
2023-05-25T11:10:01.886Z,24.88
2023-05-25T11:12:47.777Z,25.06
2023-05-25T11:15:33.788Z,25.19
2023-05-25T11:18:19.853Z,25.40
2023-05-25T11:21:18.626Z,25.31
2023-05-25T11:24:12.740Z,25.25
2023-05-25T11:27:01.477Z,25.11
2023-05-25T11:29:51.211Z,25.28
2023-05-25T11:32:41.015Z,25.25
2023-05-25T11:35:28.795Z,25.20
2023-05-25T11:38:15.908Z,25.34
2023-05-25T11:41:04.524Z,25.44
2023-05-25T11:43:53.398Z,25.53
2023-05-25T11:46:39.566Z,25.55
2023-05-25T11:49:26.466Z,25.60
2023-05-25T11:52:13.524Z,25.60
2023-05-25T11:54:59.928Z,25.58
2023-05-25T11:57:46.301Z,25.62
2023-05-25T12:00:34.132Z,25.58
2023-05-25T12:03:31.390Z,25.69
2023-05-25T12:06:25.409Z,25.86
2023-05-25T12:09:12.848Z,26.30
2023-05-25T12:11:59.706Z,26.78
2023-05-25T12:14:49.287Z,27.19
2023-05-25T12:17:36.667Z,27.28
2023-05-25T12:20:23.114Z,27.49
2023-05-25T12:23:09.541Z,27.48
2023-05-25T12:26:09.545Z,27.71
2023-05-25T12:29:00.138Z,27.95
2023-05-25T12:31:46.657Z,28.09
2023-05-25T12:34:34.972Z,27.96
2023-05-25T12:37:22.224Z,28.24
2023-05-25T12:40:18.306Z,28.33
2023-05-25T12:43:05.080Z,28.31
2023-05-25T12:45:51.695Z,28.73
2023-05-25T12:48:37.815Z,29.14
2023-05-25T12:51:25.825Z,30.97
2023-05-25T12:54:11.715Z,30.01
2023-05-25T12:56:57.729Z,29.92
2023-05-25T12:59:45.115Z,29.79
2023-05-25T13:02:31.284Z,29.84
2023-05-25T13:05:21.958Z,29.74
2023-05-25T13:08:09.310Z,29.24
2023-05-25T13:10:57.136Z,29.25
2023-05-25T13:13:44.867Z,29.20
2023-05-25T13:16:33.343Z,29.17
2023-05-25T13:19:20.783Z,29.08
2023-05-25T13:22:07.423Z,29.56
2023-05-25T13:24:55.202Z,29.82
2023-05-25T13:27:44.892Z,29.91
2023-05-25T13:30:31.134Z,29.84
2023-05-25T13:33:17.406Z,29.66
2023-05-25T13:36:08.889Z,29.47
2023-05-25T13:38:55.093Z,29.45
2023-05-25T13:41:42.770Z,29.31
2023-05-25T13:44:29.079Z,29.13
2023-05-25T13:47:15.220Z,29.06
2023-05-25T13:50:01.356Z,29.06
2023-05-25T13:52:47.388Z,29.01
2023-05-25T13:55:34.438Z,28.94
2023-05-25T13:58:24.560Z,28.68
2023-05-25T14:01:10.645Z,28.96
2023-05-25T14:03:57.851Z,28.95
2023-05-25T14:06:44.080Z,28.77
2023-05-25T14:09:30.367Z,28.65
2023-05-25T14:12:16.330Z,28.64
2023-05-25T14:15:04.052Z,28.52
2023-05-25T14:17:50.693Z,28.53
2023-05-25T14:20:37.173Z,28.14
2023-05-25T14:23:23.960Z,27.97
2023-05-25T14:26:12.655Z,27.80
2023-05-25T14:28:58.983Z,27.76
2023-05-25T14:31:47.016Z,27.63
2023-05-25T14:34:33.239Z,27.72
2023-05-25T14:37:19.189Z,27.64
2023-05-25T14:40:06.115Z,27.65
2023-05-25T14:42:52.038Z,27.46
2023-05-25T14:45:38.365Z,27.60
2023-05-25T14:48:26.109Z,27.44
2023-05-25T14:51:12.291Z,27.20
2023-05-25T14:54:00.394Z,27.10
2023-05-25T14:56:46.809Z,27.18
2023-05-25T14:59:33.402Z,27.23
2023-05-25T15:02:19.989Z,27.30
2023-05-25T15:05:08.904Z,27.25
2023-05-25T15:07:54.983Z,27.14
2023-05-25T15:10:41.323Z,27.19
2023-05-25T15:13:27.474Z,27.28
2023-05-25T15:16:13.995Z,27.21
2023-05-25T15:19:00.459Z,27.19
2023-05-25T15:21:48.428Z,27.15
2023-05-25T15:24:34.247Z,27.09
2023-05-25T15:27:20.406Z,26.93
2023-05-25T15:30:07.897Z,27.08
2023-05-25T15:32:53.751Z,26.99
2023-05-25T15:35:40.549Z,26.90
2023-05-25T15:38:28.175Z,26.89
2023-05-25T15:41:15.924Z,26.84
2023-05-25T15:44:01.828Z,26.71
2023-05-25T15:46:48.074Z,26.71
2023-05-25T15:49:36.718Z,26.79
2023-05-25T15:52:22.961Z,26.69
2023-05-25T15:55:10.990Z,26.84
2023-05-25T15:57:57.035Z,26.58
2023-05-25T16:00:42.975Z,26.66
2023-05-25T16:03:29.705Z,26.79
2023-05-25T16:06:16.252Z,26.88
2023-05-25T16:09:02.268Z,26.79
2023-05-25T16:11:49.865Z,26.73
2023-05-25T16:14:35.839Z,26.77
2023-05-25T16:17:22.186Z,26.75
2023-05-25T16:20:10.164Z,26.75
2023-05-25T16:22:56.257Z,26.77
2023-05-25T16:25:42.177Z,26.80
2023-05-25T16:28:30.174Z,26.78
2023-05-25T16:31:17.359Z,26.72
2023-05-25T16:34:04.291Z,26.65
2023-05-25T16:36:50.270Z,26.72
2023-05-25T16:39:36.466Z,26.69
2023-05-25T16:42:24.887Z,26.55
2023-05-25T16:45:12.577Z,26.48
2023-05-25T16:47:58.404Z,26.45
2023-05-25T16:50:44.860Z,26.27
2023-05-25T16:53:31.103Z,26.34
2023-05-25T16:56:18.091Z,26.28
2023-05-25T16:59:03.994Z,26.31
2023-05-25T17:01:52.034Z,26.16
2023-05-25T17:04:38.378Z,26.08
2023-05-25T17:07:24.695Z,26.07
2023-05-25T17:10:11.791Z,25.93
2023-05-25T17:12:58.196Z,25.83
2023-05-25T17:15:45.813Z,25.88
2023-05-25T17:18:33.450Z,26.03
2023-05-25T17:21:19.707Z,25.89
2023-05-25T17:24:06.821Z,25.88
2023-05-25T17:26:52.804Z,25.70
2023-05-25T17:29:39.055Z,25.72
2023-05-25T17:32:24.996Z,25.52
2023-05-25T17:35:12.745Z,25.42
2023-05-25T17:37:59.191Z,25.25
2023-05-25T17:40:45.060Z,25.23
2023-05-25T17:43:31.372Z,25.24
2023-05-25T17:46:17.544Z,25.05
2023-05-25T17:49:04.411Z,25.05
2023-05-25T17:51:52.046Z,24.99
2023-05-25T17:54:38.084Z,24.90
2023-05-25T17:57:23.998Z,24.91
2023-05-25T18:00:11.006Z,24.71
2023-05-25T18:02:59.974Z,24.68
2023-05-25T18:05:46.919Z,24.62
2023-05-25T18:08:34.629Z,24.33
2023-05-25T18:11:21.323Z,24.49
2023-05-25T18:14:07.772Z,24.44
2023-05-25T18:16:54.170Z,24.33
2023-05-25T18:19:40.531Z,24.27
2023-05-25T18:22:26.784Z,23.93
2023-05-25T18:25:14.390Z,23.85
2023-05-25T18:28:01.184Z,23.94
2023-05-25T18:30:47.091Z,23.87
2023-05-25T18:33:33.590Z,23.84
2023-05-25T18:36:19.618Z,23.77
2023-05-25T18:39:05.588Z,23.71
2023-05-25T18:41:52.852Z,23.67
2023-05-25T18:44:39.025Z,23.55
2023-05-25T18:47:25.239Z,23.51
2023-05-25T18:50:12.317Z,23.43
2023-05-25T18:52:59.485Z,23.29
2023-05-25T18:55:45.901Z,23.24
2023-05-25T18:58:33.781Z,23.07
2023-05-25T19:01:20.196Z,22.98
2023-05-25T19:04:06.340Z,22.96
2023-05-25T19:06:52.626Z,22.96
2023-05-25T19:09:38.489Z,22.88
2023-05-25T19:12:24.395Z,22.76
2023-05-25T19:15:13.251Z,22.70
2023-05-25T19:17:59.909Z,22.60
2023-05-25T19:20:46.297Z,22.50
2023-05-25T19:23:32.566Z,22.42
2023-05-25T19:26:18.928Z,22.34
2023-05-25T19:29:04.953Z,22.34
2023-05-25T19:31:52.556Z,22.25
2023-05-25T19:34:38.756Z,22.11
2023-05-25T19:37:24.617Z,22.06
2023-05-25T19:40:12.477Z,21.86
2023-05-25T19:42:58.398Z,21.80
2023-05-25T19:45:45.330Z,21.76
2023-05-25T19:48:33.237Z,21.76
2023-05-25T19:51:19.373Z,21.67
2023-05-25T19:54:05.176Z,21.59
2023-05-25T19:56:51.124Z,21.58
2023-05-25T19:59:37.591Z,21.44
2023-05-25T20:02:23.851Z,21.39
2023-05-25T20:05:11.807Z,21.36
2023-05-25T20:07:58.001Z,21.21
2023-05-25T20:10:44.979Z,21.18
2023-05-25T20:13:31.566Z,21.13
2023-05-25T20:16:17.779Z,21.04
2023-05-25T20:19:07.390Z,21.00
2023-05-25T20:21:54.871Z,20.75
2023-05-25T20:24:41.068Z,20.80
2023-05-25T20:27:27.556Z,20.70
2023-05-25T20:30:15.670Z,20.68
2023-05-25T20:33:02.483Z,20.68
2023-05-25T20:35:48.527Z,20.59
2023-05-25T20:38:36.212Z,20.48
2023-05-25T20:41:22.764Z,20.43
2023-05-25T20:44:08.977Z,20.41
2023-05-25T20:46:55.483Z,20.41
2023-05-25T20:49:41.476Z,20.32
2023-05-25T20:52:27.455Z,20.29
2023-05-25T20:55:14.980Z,20.16
2023-05-25T20:58:01.678Z,20.14
2023-05-25T21:00:49.617Z,20.01
2023-05-25T21:03:35.926Z,19.96
2023-05-25T21:06:22.552Z,19.89
2023-05-25T21:09:08.883Z,19.97
2023-05-25T21:11:56.278Z,19.93
2023-05-25T21:14:42.395Z,19.85
2023-05-25T21:17:29.031Z,19.75
2023-05-25T21:20:15.451Z,19.71
2023-05-25T21:23:02.460Z,19.73
2023-05-25T21:25:49.146Z,19.70
2023-05-25T21:28:36.978Z,19.61
2023-05-25T21:31:24.416Z,19.47
2023-05-25T21:34:10.823Z,19.51
2023-05-25T21:36:56.735Z,19.42
2023-05-25T21:39:43.300Z,19.42
2023-05-25T21:42:29.335Z,19.38
2023-05-25T21:45:16.557Z,19.28
2023-05-25T21:48:04.158Z,19.14
2023-05-25T21:50:51.390Z,19.16
2023-05-25T21:53:37.279Z,19.16
2023-05-25T21:56:24.283Z,19.21
2023-05-25T21:59:10.316Z,19.18
2023-05-25T22:01:57.687Z,19.02
2023-05-25T22:04:44.065Z,18.90
2023-05-25T22:07:30.134Z,18.85
2023-05-25T22:10:16.250Z,18.86
2023-05-25T22:13:03.252Z,18.65
2023-05-25T22:15:49.165Z,18.57
2023-05-25T22:18:38.607Z,18.56
2023-05-25T22:21:25.171Z,18.45
2023-05-25T22:24:11.473Z,18.37
2023-05-25T22:26:57.639Z,18.27
2023-05-25T22:29:44.661Z,18.29
2023-05-25T22:32:31.087Z,18.21
2023-05-25T22:35:18.487Z,18.18
2023-05-25T22:38:04.776Z,18.17
2023-05-25T22:40:51.173Z,18.11
2023-05-25T22:43:37.367Z,18.09
2023-05-25T22:46:23.753Z,18.08
2023-05-25T22:49:10.106Z,18.07
2023-05-25T22:51:57.619Z,18.04
2023-05-25T22:54:43.669Z,18.04
2023-05-25T22:57:29.826Z,17.97
2023-05-25T23:00:16.292Z,17.90
2023-05-25T23:03:04.471Z,17.87
2023-05-25T23:05:50.905Z,17.84
2023-05-25T23:08:39.301Z,17.77
2023-05-25T23:11:26.293Z,17.68
2023-05-25T23:14:12.644Z,17.67
2023-05-25T23:16:58.929Z,17.64
2023-05-25T23:19:45.233Z,17.65
2023-05-25T23:22:31.296Z,17.57
2023-05-25T23:25:19.261Z,17.53
2023-05-25T23:28:05.905Z,17.46
2023-05-25T23:30:52.513Z,17.43
2023-05-25T23:33:38.852Z,17.35
2023-05-25T23:36:26.039Z,17.33
2023-05-25T23:39:12.868Z,17.28
2023-05-25T23:42:00.495Z,17.26
2023-05-25T23:44:46.774Z,17.24
2023-05-25T23:47:33.081Z,17.21
2023-05-25T23:50:19.489Z,17.19
2023-05-25T23:53:05.945Z,17.17
2023-05-25T23:55:51.913Z,17.12
2023-05-25T23:58:39.513Z,17.14
